sensor_id;sensor_type;location;lat;lon;timestamp;P1;durP1;ratioP1;P2;durP2;ratioP2
45676;SDS011;31390;51.186;6.830;2023-01-19T00:00:16;20.47;;;18.27;;
45676;SDS011;31390;51.186;6.830;2023-01-19T00:02:43;21.57;;;19.37;;
45676;SDS011;31390;51.186;6.830;2023-01-19T00:05:13;20.57;;;18.47;;
45676;SDS011;31390;51.186;6.830;2023-01-19T00:07:39;18.77;;;16.93;;
45676;SDS011;31390;51.186;6.830;2023-01-19T00:10:07;18.97;;;17.13;;
45676;SDS011;31390;51.186;6.830;2023-01-19T00:12:37;18.80;;;16.93;;
45676;SDS011;31390;51.186;6.830;2023-01-19T00:15:03;20.60;;;18.10;;
45676;SDS011;31390;51.186;6.830;2023-01-19T00:17:30;17.57;;;15.83;;
45676;SDS011;31390;51.186;6.830;2023-01-19T00:19:57;17.63;;;15.80;;
45676;SDS011;31390;51.186;6.830;2023-01-19T00:22:23;19.77;;;16.80;;
45676;SDS011;31390;51.186;6.830;2023-01-19T00:24:49;19.00;;;16.17;;
45676;SDS011;31390;51.186;6.830;2023-01-19T00:27:16;16.80;;;15.27;;
45676;SDS011;31390;51.186;6.830;2023-01-19T00:29:42;15.83;;;14.10;;
45676;SDS011;31390;51.186;6.830;2023-01-19T00:32:09;17.03;;;15.37;;
45676;SDS011;31390;51.186;6.830;2023-01-19T00:34:35;19.00;;;16.27;;
45676;SDS011;31390;51.186;6.830;2023-01-19T00:37:05;17.63;;;15.80;;
45676;SDS011;31390;51.186;6.830;2023-01-19T00:39:31;18.97;;;16.87;;
45676;SDS011;31390;51.186;6.830;2023-01-19T00:41:58;17.33;;;15.57;;
45676;SDS011;31390;51.186;6.830;2023-01-19T00:44:43;16.33;;;14.70;;
45676;SDS011;31390;51.186;6.830;2023-01-19T00:47:09;19.27;;;17.27;;
45676;SDS011;31390;51.186;6.830;2023-01-19T00:49:36;18.07;;;16.20;;
45676;SDS011;31390;51.186;6.830;2023-01-19T00:52:02;21.03;;;18.47;;
45676;SDS011;31390;51.186;6.830;2023-01-19T00:54:29;20.77;;;18.57;;
45676;SDS011;31390;51.186;6.830;2023-01-19T00:56:55;18.80;;;17.00;;
45676;SDS011;31390;51.186;6.830;2023-01-19T00:59:22;18.13;;;16.37;;
45676;SDS011;31390;51.186;6.830;2023-01-19T01:01:48;19.57;;;17.50;;
45676;SDS011;31390;51.186;6.830;2023-01-19T01:04:15;18.03;;;16.13;;
45676;SDS011;31390;51.186;6.830;2023-01-19T01:06:41;18.30;;;16.40;;
45676;SDS011;31390;51.186;6.830;2023-01-19T01:09:08;17.77;;;15.87;;
45676;SDS011;31390;51.186;6.830;2023-01-19T01:11:40;18.50;;;15.30;;
45676;SDS011;31390;51.186;6.830;2023-01-19T01:14:08;17.70;;;16.00;;
45676;SDS011;31390;51.186;6.830;2023-01-19T01:16:34;19.53;;;17.53;;
45676;SDS011;31390;51.186;6.830;2023-01-19T01:19:01;19.07;;;17.17;;
45676;SDS011;31390;51.186;6.830;2023-01-19T01:21:27;17.33;;;15.60;;
45676;SDS011;31390;51.186;6.830;2023-01-19T01:23:54;19.57;;;15.77;;
45676;SDS011;31390;51.186;6.830;2023-01-19T01:26:20;18.47;;;16.57;;
45676;SDS011;31390;51.186;6.830;2023-01-19T01:28:47;19.70;;;16.37;;
45676;SDS011;31390;51.186;6.830;2023-01-19T01:31:13;19.53;;;17.37;;
45676;SDS011;31390;51.186;6.830;2023-01-19T01:33:40;18.23;;;16.33;;
45676;SDS011;31390;51.186;6.830;2023-01-19T01:36:07;18.60;;;16.70;;
45676;SDS011;31390;51.186;6.830;2023-01-19T01:38:34;18.00;;;16.30;;
45676;SDS011;31390;51.186;6.830;2023-01-19T01:41:00;17.23;;;15.43;;
45676;SDS011;31390;51.186;6.830;2023-01-19T01:43:40;19.07;;;16.87;;
45676;SDS011;31390;51.186;6.830;2023-01-19T01:46:07;18.50;;;16.60;;
45676;SDS011;31390;51.186;6.830;2023-01-19T01:48:34;17.30;;;15.50;;
45676;SDS011;31390;51.186;6.830;2023-01-19T01:51:03;17.90;;;15.93;;
45676;SDS011;31390;51.186;6.830;2023-01-19T01:56:31;19.90;;;17.27;;
45676;SDS011;31390;51.186;6.830;2023-01-19T01:58:59;17.33;;;15.50;;
45676;SDS011;31390;51.186;6.830;2023-01-19T02:01:27;17.87;;;15.93;;
45676;SDS011;31390;51.186;6.830;2023-01-19T02:04:13;16.23;;;14.73;;
45676;SDS011;31390;51.186;6.830;2023-01-19T02:06:40;17.63;;;15.73;;
45676;SDS011;31390;51.186;6.830;2023-01-19T02:09:25;18.03;;;16.23;;
45676;SDS011;31390;51.186;6.830;2023-01-19T02:12:12;16.50;;;14.80;;
45676;SDS011;31390;51.186;6.830;2023-01-19T02:14:57;21.10;;;15.47;;
45676;SDS011;31390;51.186;6.830;2023-01-19T02:17:24;14.37;;;13.07;;
45676;SDS011;31390;51.186;6.830;2023-01-19T02:19:50;17.90;;;15.70;;
45676;SDS011;31390;51.186;6.830;2023-01-19T02:22:18;18.80;;;14.07;;
45676;SDS011;31390;51.186;6.830;2023-01-19T02:24:45;17.87;;;14.83;;
45676;SDS011;31390;51.186;6.830;2023-01-19T02:27:12;15.87;;;14.27;;
45676;SDS011;31390;51.186;6.830;2023-01-19T02:29:38;17.30;;;15.17;;
45676;SDS011;31390;51.186;6.830;2023-01-19T02:32:05;16.70;;;15.00;;
45676;SDS011;31390;51.186;6.830;2023-01-19T02:34:32;15.67;;;14.20;;
45676;SDS011;31390;51.186;6.830;2023-01-19T02:37:02;17.70;;;15.27;;
45676;SDS011;31390;51.186;6.830;2023-01-19T02:39:33;18.87;;;15.60;;
45676;SDS011;31390;51.186;6.830;2023-01-19T02:42:01;16.70;;;15.03;;
45676;SDS011;31390;51.186;6.830;2023-01-19T02:44:28;17.57;;;15.77;;
45676;SDS011;31390;51.186;6.830;2023-01-19T02:46:55;17.23;;;15.40;;
45676;SDS011;31390;51.186;6.830;2023-01-19T02:49:22;19.17;;;17.20;;
45676;SDS011;31390;51.186;6.830;2023-01-19T02:51:49;17.23;;;14.93;;
45676;SDS011;31390;51.186;6.830;2023-01-19T02:55:16;17.87;;;15.97;;
45676;SDS011;31390;51.186;6.830;2023-01-19T02:57:24;18.93;;;16.63;;
45676;SDS011;31390;51.186;6.830;2023-01-19T03:05:16;17.67;;;15.57;;
45676;SDS011;31390;51.186;6.830;2023-01-19T03:12:59;19.80;;;16.87;;
45676;SDS011;31390;51.186;6.830;2023-01-19T03:15:46;24.00;;;17.27;;
45676;SDS011;31390;51.186;6.830;2023-01-19T03:18:15;18.53;;;16.53;;
45676;SDS011;31390;51.186;6.830;2023-01-19T03:20:43;18.27;;;16.20;;
45676;SDS011;31390;51.186;6.830;2023-01-19T03:23:11;17.70;;;15.90;;
45676;SDS011;31390;51.186;6.830;2023-01-19T03:25:40;16.50;;;14.80;;
45676;SDS011;31390;51.186;6.830;2023-01-19T03:28:07;16.70;;;14.90;;
45676;SDS011;31390;51.186;6.830;2023-01-19T03:30:36;17.27;;;14.80;;
45676;SDS011;31390;51.186;6.830;2023-01-19T03:33:08;20.40;;;16.43;;
45676;SDS011;31390;51.186;6.830;2023-01-19T03:35:38;17.00;;;14.90;;
45676;SDS011;31390;51.186;6.830;2023-01-19T03:38:06;18.87;;;16.90;;
45676;SDS011;31390;51.186;6.830;2023-01-19T03:40:35;17.63;;;15.43;;
45676;SDS011;31390;51.186;6.830;2023-01-19T03:43:01;19.13;;;15.13;;
45676;SDS011;31390;51.186;6.830;2023-01-19T03:45:30;16.93;;;15.17;;
45676;SDS011;31390;51.186;6.830;2023-01-19T03:47:57;17.87;;;15.23;;
45676;SDS011;31390;51.186;6.830;2023-01-19T03:50:26;14.93;;;13.43;;
45676;SDS011;31390;51.186;6.830;2023-01-19T03:52:59;15.10;;;13.20;;
45676;SDS011;31390;51.186;6.830;2023-01-19T03:55:26;15.37;;;13.77;;
45676;SDS011;31390;51.186;6.830;2023-01-19T03:57:53;16.50;;;13.83;;
45676;SDS011;31390;51.186;6.830;2023-01-19T04:00:20;14.77;;;13.27;;
45676;SDS011;31390;51.186;6.830;2023-01-19T04:02:46;16.37;;;13.57;;
45676;SDS011;31390;51.186;6.830;2023-01-19T04:05:13;15.47;;;12.43;;
45676;SDS011;31390;51.186;6.830;2023-01-19T04:07:39;15.10;;;13.20;;
45676;SDS011;31390;51.186;6.830;2023-01-19T04:10:06;16.60;;;12.63;;
45676;SDS011;31390;51.186;6.830;2023-01-19T04:12:38;14.40;;;12.30;;
45676;SDS011;31390;51.186;6.830;2023-01-19T04:15:05;14.67;;;13.10;;
45676;SDS011;31390;51.186;6.830;2023-01-19T04:17:32;14.50;;;12.67;;
45676;SDS011;31390;51.186;6.830;2023-01-19T04:19:58;15.87;;;13.67;;
45676;SDS011;31390;51.186;6.830;2023-01-19T04:22:25;18.10;;;14.17;;
45676;SDS011;31390;51.186;6.830;2023-01-19T04:24:51;17.07;;;14.00;;
45676;SDS011;31390;51.186;6.830;2023-01-19T04:27:18;17.73;;;15.20;;
45676;SDS011;31390;51.186;6.830;2023-01-19T04:29:44;19.60;;;15.27;;
45676;SDS011;31390;51.186;6.830;2023-01-19T04:32:14;19.60;;;15.77;;
45676;SDS011;31390;51.186;6.830;2023-01-19T04:34:40;16.73;;;14.90;;
45676;SDS011;31390;51.186;6.830;2023-01-19T04:37:07;21.93;;;16.67;;
45676;SDS011;31390;51.186;6.830;2023-01-19T04:39:33;18.13;;;15.27;;
45676;SDS011;31390;51.186;6.830;2023-01-19T04:42:00;21.87;;;15.77;;
45676;SDS011;31390;51.186;6.830;2023-01-19T04:44:27;23.33;;;15.37;;
45676;SDS011;31390;51.186;6.830;2023-01-19T04:46:53;20.37;;;16.30;;
45676;SDS011;31390;51.186;6.830;2023-01-19T04:49:20;21.33;;;17.23;;
45676;SDS011;31390;51.186;6.830;2023-01-19T04:51:46;20.53;;;15.33;;
45676;SDS011;31390;51.186;6.830;2023-01-19T04:54:12;20.13;;;14.97;;
45676;SDS011;31390;51.186;6.830;2023-01-19T04:56:39;20.70;;;14.37;;
45676;SDS011;31390;51.186;6.830;2023-01-19T04:59:08;22.53;;;16.40;;
45676;SDS011;31390;51.186;6.830;2023-01-19T05:01:35;23.17;;;17.80;;
45676;SDS011;31390;51.186;6.830;2023-01-19T05:04:02;22.80;;;15.80;;
45676;SDS011;31390;51.186;6.830;2023-01-19T05:06:31;26.07;;;18.03;;
45676;SDS011;31390;51.186;6.830;2023-01-19T05:08:58;25.30;;;18.23;;
45676;SDS011;31390;51.186;6.830;2023-01-19T05:11:24;25.60;;;18.27;;
45676;SDS011;31390;51.186;6.830;2023-01-19T05:13:51;24.17;;;17.13;;
45676;SDS011;31390;51.186;6.830;2023-01-19T05:16:18;26.53;;;18.40;;
45676;SDS011;31390;51.186;6.830;2023-01-19T05:18:44;29.93;;;20.00;;
45676;SDS011;31390;51.186;6.830;2023-01-19T05:21:11;35.97;;;22.33;;
45676;SDS011;31390;51.186;6.830;2023-01-19T05:23:37;33.77;;;21.47;;
45676;SDS011;31390;51.186;6.830;2023-01-19T05:26:04;33.60;;;21.33;;
45676;SDS011;31390;51.186;6.830;2023-01-19T05:28:31;36.47;;;24.07;;
45676;SDS011;31390;51.186;6.830;2023-01-19T05:30:58;40.63;;;25.10;;
45676;SDS011;31390;51.186;6.830;2023-01-19T05:33:24;57.97;;;30.73;;
45676;SDS011;31390;51.186;6.830;2023-01-19T05:35:51;62.23;;;31.13;;
45676;SDS011;31390;51.186;6.830;2023-01-19T05:38:19;43.60;;;27.10;;
45676;SDS011;31390;51.186;6.830;2023-01-19T05:40:59;70.80;;;32.87;;
45676;SDS011;31390;51.186;6.830;2023-01-19T05:43:25;46.50;;;29.27;;
45676;SDS011;31390;51.186;6.830;2023-01-19T05:45:52;51.37;;;29.63;;
45676;SDS011;31390;51.186;6.830;2023-01-19T05:48:18;53.43;;;30.53;;
45676;SDS011;31390;51.186;6.830;2023-01-19T05:50:44;60.63;;;33.33;;
45676;SDS011;31390;51.186;6.830;2023-01-19T05:53:11;63.43;;;33.70;;
45676;SDS011;31390;51.186;6.830;2023-01-19T05:55:37;62.30;;;33.93;;
45676;SDS011;31390;51.186;6.830;2023-01-19T05:58:04;74.47;;;38.37;;
45676;SDS011;31390;51.186;6.830;2023-01-19T06:00:30;64.17;;;35.70;;
45676;SDS011;31390;51.186;6.830;2023-01-19T06:02:57;70.90;;;35.93;;
45676;SDS011;31390;51.186;6.830;2023-01-19T06:05:26;64.17;;;34.47;;
45676;SDS011;31390;51.186;6.830;2023-01-19T06:07:54;80.60;;;39.60;;
45676;SDS011;31390;51.186;6.830;2023-01-19T06:10:21;60.43;;;32.83;;
45676;SDS011;31390;51.186;6.830;2023-01-19T06:12:47;53.87;;;32.40;;
45676;SDS011;31390;51.186;6.830;2023-01-19T06:15:14;51.03;;;31.30;;
45676;SDS011;31390;51.186;6.830;2023-01-19T06:17:40;47.13;;;30.40;;
45676;SDS011;31390;51.186;6.830;2023-01-19T06:20:08;62.10;;;34.93;;
45676;SDS011;31390;51.186;6.830;2023-01-19T06:22:35;51.60;;;31.40;;
45676;SDS011;31390;51.186;6.830;2023-01-19T06:25:01;53.33;;;32.33;;
45676;SDS011;31390;51.186;6.830;2023-01-19T06:27:28;66.73;;;32.50;;
45676;SDS011;31390;51.186;6.830;2023-01-19T06:29:54;55.77;;;31.97;;
45676;SDS011;31390;51.186;6.830;2023-01-19T06:32:21;46.93;;;29.00;;
45676;SDS011;31390;51.186;6.830;2023-01-19T06:34:47;49.77;;;29.37;;
45676;SDS011;31390;51.186;6.830;2023-01-19T06:37:14;42.37;;;26.47;;
45676;SDS011;31390;51.186;6.830;2023-01-19T06:39:41;46.27;;;28.67;;
45676;SDS011;31390;51.186;6.830;2023-01-19T06:42:10;64.13;;;32.30;;
45676;SDS011;31390;51.186;6.830;2023-01-19T06:44:36;50.93;;;29.63;;
45676;SDS011;31390;51.186;6.830;2023-01-19T06:47:03;46.37;;;29.43;;
45676;SDS011;31390;51.186;6.830;2023-01-19T06:49:41;44.37;;;28.67;;
45676;SDS011;31390;51.186;6.830;2023-01-19T06:52:08;50.23;;;30.10;;
45676;SDS011;31390;51.186;6.830;2023-01-19T06:54:35;79.73;;;38.47;;
45676;SDS011;31390;51.186;6.830;2023-01-19T06:57:03;56.03;;;31.93;;
45676;SDS011;31390;51.186;6.830;2023-01-19T06:59:29;55.80;;;33.23;;
45676;SDS011;31390;51.186;6.830;2023-01-19T07:01:55;49.90;;;31.50;;
45676;SDS011;31390;51.186;6.830;2023-01-19T07:04:22;54.67;;;32.97;;
45676;SDS011;31390;51.186;6.830;2023-01-19T07:06:49;62.17;;;34.33;;
45676;SDS011;31390;51.186;6.830;2023-01-19T07:09:15;63.67;;;36.47;;
45676;SDS011;31390;51.186;6.830;2023-01-19T07:11:42;95.93;;;42.50;;
45676;SDS011;31390;51.186;6.830;2023-01-19T07:14:08;46.47;;;29.93;;
45676;SDS011;31390;51.186;6.830;2023-01-19T07:16:35;59.30;;;33.70;;
45676;SDS011;31390;51.186;6.830;2023-01-19T07:19:02;68.23;;;37.90;;
45676;SDS011;31390;51.186;6.830;2023-01-19T07:21:28;63.43;;;37.23;;
45676;SDS011;31390;51.186;6.830;2023-01-19T07:23:55;70.60;;;37.73;;
45676;SDS011;31390;51.186;6.830;2023-01-19T07:26:21;118.17;;;48.80;;
45676;SDS011;31390;51.186;6.830;2023-01-19T07:28:50;61.80;;;34.10;;
45676;SDS011;31390;51.186;6.830;2023-01-19T07:31:17;88.33;;;42.83;;
45676;SDS011;31390;51.186;6.830;2023-01-19T07:33:55;117.40;;;50.87;;
45676;SDS011;31390;51.186;6.830;2023-01-19T07:36:21;81.70;;;40.63;;
45676;SDS011;31390;51.186;6.830;2023-01-19T07:38:48;95.13;;;45.93;;
45676;SDS011;31390;51.186;6.830;2023-01-19T07:41:14;76.53;;;41.73;;
45676;SDS011;31390;51.186;6.830;2023-01-19T07:43:41;89.73;;;44.73;;
45676;SDS011;31390;51.186;6.830;2023-01-19T07:46:07;73.07;;;41.37;;
45676;SDS011;31390;51.186;6.830;2023-01-19T07:48:34;87.83;;;44.80;;
45676;SDS011;31390;51.186;6.830;2023-01-19T07:51:04;91.50;;;45.47;;
45676;SDS011;31390;51.186;6.830;2023-01-19T07:53:31;86.63;;;44.50;;
45676;SDS011;31390;51.186;6.830;2023-01-19T07:55:58;96.93;;;47.10;;
45676;SDS011;31390;51.186;6.830;2023-01-19T07:58:24;85.90;;;45.30;;
45676;SDS011;31390;51.186;6.830;2023-01-19T08:00:51;114.37;;;52.33;;
45676;SDS011;31390;51.186;6.830;2023-01-19T08:03:18;100.80;;;48.50;;
45676;SDS011;31390;51.186;6.830;2023-01-19T08:05:44;102.90;;;48.03;;
45676;SDS011;31390;51.186;6.830;2023-01-19T08:08:14;55.90;;;36.20;;
45676;SDS011;31390;51.186;6.830;2023-01-19T08:10:41;131.37;;;55.57;;
45676;SDS011;31390;51.186;6.830;2023-01-19T08:13:07;94.67;;;46.73;;
45676;SDS011;31390;51.186;6.830;2023-01-19T08:15:34;122.33;;;53.03;;
45676;SDS011;31390;51.186;6.830;2023-01-19T08:18:01;100.67;;;48.97;;
45676;SDS011;31390;51.186;6.830;2023-01-19T08:20:30;168.27;;;63.03;;
45676;SDS011;31390;51.186;6.830;2023-01-19T08:22:57;66.60;;;38.17;;
45676;SDS011;31390;51.186;6.830;2023-01-19T08:25:32;80.10;;;41.10;;
45676;SDS011;31390;51.186;6.830;2023-01-19T08:27:59;125.43;;;55.07;;
45676;SDS011;31390;51.186;6.830;2023-01-19T08:30:26;101.83;;;47.53;;
45676;SDS011;31390;51.186;6.830;2023-01-19T08:32:53;68.83;;;41.17;;
45676;SDS011;31390;51.186;6.830;2023-01-19T08:35:20;112.27;;;50.43;;
45676;SDS011;31390;51.186;6.830;2023-01-19T08:37:47;92.57;;;46.07;;
45676;SDS011;31390;51.186;6.830;2023-01-19T08:40:14;95.20;;;47.50;;
45676;SDS011;31390;51.186;6.830;2023-01-19T08:42:41;100.53;;;50.33;;
45676;SDS011;31390;51.186;6.830;2023-01-19T08:45:08;62.47;;;37.93;;
45676;SDS011;31390;51.186;6.830;2023-01-19T08:47:34;81.03;;;44.50;;
45676;SDS011;31390;51.186;6.830;2023-01-19T08:50:01;94.80;;;48.27;;
45676;SDS011;31390;51.186;6.830;2023-01-19T08:52:27;87.63;;;46.07;;
45676;SDS011;31390;51.186;6.830;2023-01-19T08:54:54;113.00;;;50.93;;
45676;SDS011;31390;51.186;6.830;2023-01-19T08:57:21;97.63;;;50.17;;
45676;SDS011;31390;51.186;6.830;2023-01-19T08:59:47;153.13;;;62.20;;
45676;SDS011;31390;51.186;6.830;2023-01-19T09:02:13;88.63;;;47.20;;
45676;SDS011;31390;51.186;6.830;2023-01-19T09:04:40;91.50;;;49.47;;
45676;SDS011;31390;51.186;6.830;2023-01-19T09:07:06;108.57;;;53.63;;
45676;SDS011;31390;51.186;6.830;2023-01-19T09:09:33;99.73;;;52.30;;
45676;SDS011;31390;51.186;6.830;2023-01-19T09:12:03;127.10;;;57.33;;
45676;SDS011;31390;51.186;6.830;2023-01-19T09:14:29;94.73;;;49.83;;
45676;SDS011;31390;51.186;6.830;2023-01-19T09:16:56;86.90;;;47.53;;
45676;SDS011;31390;51.186;6.830;2023-01-19T09:19:22;100.47;;;50.27;;
45676;SDS011;31390;51.186;6.830;2023-01-19T09:21:48;149.43;;;64.67;;
45676;SDS011;31390;51.186;6.830;2023-01-19T09:24:15;60.67;;;41.23;;
45676;SDS011;31390;51.186;6.830;2023-01-19T09:26:42;86.53;;;47.37;;
45676;SDS011;31390;51.186;6.830;2023-01-19T09:29:08;99.30;;;51.87;;
45676;SDS011;31390;51.186;6.830;2023-01-19T09:31:35;96.00;;;50.53;;
45676;SDS011;31390;51.186;6.830;2023-01-19T09:34:02;90.10;;;49.10;;
45676;SDS011;31390;51.186;6.830;2023-01-19T09:36:28;101.90;;;53.30;;
45676;SDS011;31390;51.186;6.830;2023-01-19T09:38:55;103.27;;;53.03;;
45676;SDS011;31390;51.186;6.830;2023-01-19T09:41:21;192.73;;;71.70;;
45676;SDS011;31390;51.186;6.830;2023-01-19T09:43:57;93.73;;;50.83;;
45676;SDS011;31390;51.186;6.830;2023-01-19T09:46:29;105.70;;;53.47;;
45676;SDS011;31390;51.186;6.830;2023-01-19T09:48:58;101.77;;;52.27;;
45676;SDS011;31390;51.186;6.830;2023-01-19T09:51:35;119.40;;;57.40;;
45676;SDS011;31390;51.186;6.830;2023-01-19T09:56:30;84.87;;;47.57;;
45676;SDS011;31390;51.186;6.830;2023-01-19T09:58:57;84.30;;;46.07;;
45676;SDS011;31390;51.186;6.830;2023-01-19T10:01:31;185.40;;;65.43;;
45676;SDS011;31390;51.186;6.830;2023-01-19T10:06:45;110.03;;;53.27;;
45676;SDS011;31390;51.186;6.830;2023-01-19T10:09:17;100.37;;;50.87;;
45676;SDS011;31390;51.186;6.830;2023-01-19T10:11:47;120.97;;;55.20;;
45676;SDS011;31390;51.186;6.830;2023-01-19T10:14:19;127.00;;;57.37;;
45676;SDS011;31390;51.186;6.830;2023-01-19T10:17:01;87.87;;;48.07;;
45676;SDS011;31390;51.186;6.830;2023-01-19T10:19:36;110.27;;;52.60;;
45676;SDS011;31390;51.186;6.830;2023-01-19T10:22:06;117.53;;;54.27;;
45676;SDS011;31390;51.186;6.830;2023-01-19T10:24:37;88.00;;;48.20;;
45676;SDS011;31390;51.186;6.830;2023-01-19T10:27:19;110.50;;;53.30;;
45676;SDS011;31390;51.186;6.830;2023-01-19T10:29:49;92.53;;;47.17;;
45676;SDS011;31390;51.186;6.830;2023-01-19T10:32:28;91.63;;;49.53;;
45676;SDS011;31390;51.186;6.830;2023-01-19T10:34:56;73.27;;;43.10;;
45676;SDS011;31390;51.186;6.830;2023-01-19T10:37:37;128.87;;;56.33;;
45676;SDS011;31390;51.186;6.830;2023-01-19T10:42:34;105.33;;;50.47;;
45676;SDS011;31390;51.186;6.830;2023-01-19T10:45:01;84.77;;;48.03;;
45676;SDS011;31390;51.186;6.830;2023-01-19T10:47:32;78.37;;;44.73;;
45676;SDS011;31390;51.186;6.830;2023-01-19T10:50:00;132.97;;;57.33;;
45676;SDS011;31390;51.186;6.830;2023-01-19T10:52:35;97.93;;;50.07;;
45676;SDS011;31390;51.186;6.830;2023-01-19T10:55:03;78.40;;;45.83;;
45676;SDS011;31390;51.186;6.830;2023-01-19T10:57:31;156.67;;;61.90;;
45676;SDS011;31390;51.186;6.830;2023-01-19T10:59:58;122.27;;;55.77;;
45676;SDS011;31390;51.186;6.830;2023-01-19T11:02:25;108.27;;;51.57;;
45676;SDS011;31390;51.186;6.830;2023-01-19T11:04:54;88.17;;;46.53;;
45676;SDS011;31390;51.186;6.830;2023-01-19T11:10:18;113.87;;;54.40;;
45676;SDS011;31390;51.186;6.830;2023-01-19T11:15:23;89.20;;;48.83;;
45676;SDS011;31390;51.186;6.830;2023-01-19T11:17:50;92.73;;;49.20;;
45676;SDS011;31390;51.186;6.830;2023-01-19T11:20:19;94.27;;;48.60;;
45676;SDS011;31390;51.186;6.830;2023-01-19T11:22:46;77.43;;;45.53;;
45676;SDS011;31390;51.186;6.830;2023-01-19T11:25:21;74.90;;;46.67;;
45676;SDS011;31390;51.186;6.830;2023-01-19T11:27:51;65.83;;;40.80;;
45676;SDS011;31390;51.186;6.830;2023-01-19T11:30:18;76.20;;;44.00;;
45676;SDS011;31390;51.186;6.830;2023-01-19T11:32:45;73.40;;;41.73;;
45676;SDS011;31390;51.186;6.830;2023-01-19T11:35:31;114.67;;;50.10;;
45676;SDS011;31390;51.186;6.830;2023-01-19T11:40:37;66.47;;;39.30;;
45676;SDS011;31390;51.186;6.830;2023-01-19T11:43:07;81.60;;;42.33;;
45676;SDS011;31390;51.186;6.830;2023-01-19T11:45:34;67.80;;;39.07;;
45676;SDS011;31390;51.186;6.830;2023-01-19T11:48:02;88.20;;;45.37;;
45676;SDS011;31390;51.186;6.830;2023-01-19T11:50:32;80.57;;;43.27;;
45676;SDS011;31390;51.186;6.830;2023-01-19T11:53:03;74.27;;;39.70;;
45676;SDS011;31390;51.186;6.830;2023-01-19T11:55:47;91.17;;;47.10;;
45676;SDS011;31390;51.186;6.830;2023-01-19T11:58:16;85.33;;;44.80;;
45676;SDS011;31390;51.186;6.830;2023-01-19T12:03:25;79.27;;;43.23;;
45676;SDS011;31390;51.186;6.830;2023-01-19T12:05:57;68.53;;;39.37;;
45676;SDS011;31390;51.186;6.830;2023-01-19T12:08:29;65.30;;;39.23;;
45676;SDS011;31390;51.186;6.830;2023-01-19T12:10:57;66.87;;;40.47;;
45676;SDS011;31390;51.186;6.830;2023-01-19T12:13:26;84.23;;;45.77;;
45676;SDS011;31390;51.186;6.830;2023-01-19T12:16:27;76.97;;;43.67;;
45676;SDS011;31390;51.186;6.830;2023-01-19T12:18:54;67.17;;;40.43;;
45676;SDS011;31390;51.186;6.830;2023-01-19T12:21:21;52.03;;;35.47;;
45676;SDS011;31390;51.186;6.830;2023-01-19T12:29:14;51.27;;;33.20;;
45676;SDS011;31390;51.186;6.830;2023-01-19T12:31:41;60.57;;;35.20;;
45676;SDS011;31390;51.186;6.830;2023-01-19T12:37:00;53.40;;;34.13;;
45676;SDS011;31390;51.186;6.830;2023-01-19T12:39:28;45.00;;;29.10;;
45676;SDS011;31390;51.186;6.830;2023-01-19T12:42:05;42.47;;;28.30;;
45676;SDS011;31390;51.186;6.830;2023-01-19T12:44:32;42.20;;;28.00;;
45676;SDS011;31390;51.186;6.830;2023-01-19T12:47:11;48.57;;;31.17;;
45676;SDS011;31390;51.186;6.830;2023-01-19T12:52:22;55.37;;;32.90;;
45676;SDS011;31390;51.186;6.830;2023-01-19T12:54:51;41.53;;;28.60;;
45676;SDS011;31390;51.186;6.830;2023-01-19T12:57:24;39.87;;;29.27;;
45676;SDS011;31390;51.186;6.830;2023-01-19T12:59:58;60.03;;;34.93;;
45676;SDS011;31390;51.186;6.830;2023-01-19T13:13:20;59.47;;;35.70;;
45676;SDS011;31390;51.186;6.830;2023-01-19T13:16:42;48.90;;;31.83;;
45676;SDS011;31390;51.186;6.830;2023-01-19T13:18:40;52.87;;;33.93;;
45676;SDS011;31390;51.186;6.830;2023-01-19T13:21:07;49.43;;;32.20;;
45676;SDS011;31390;51.186;6.830;2023-01-19T13:23:53;54.00;;;33.97;;
45676;SDS011;31390;51.186;6.830;2023-01-19T13:27:09;45.53;;;29.07;;
45676;SDS011;31390;51.186;6.830;2023-01-19T13:29:13;45.87;;;29.90;;
45676;SDS011;31390;51.186;6.830;2023-01-19T13:31:43;57.67;;;33.87;;
45676;SDS011;31390;51.186;6.830;2023-01-19T13:34:22;59.33;;;32.47;;
45676;SDS011;31390;51.186;6.830;2023-01-19T13:37:04;48.63;;;31.80;;
45676;SDS011;31390;51.186;6.830;2023-01-19T13:39:48;46.90;;;29.37;;
45676;SDS011;31390;51.186;6.830;2023-01-19T13:45:15;40.53;;;27.63;;
45676;SDS011;31390;51.186;6.830;2023-01-19T13:47:51;40.03;;;27.70;;
45676;SDS011;31390;51.186;6.830;2023-01-19T13:50:26;47.07;;;28.63;;
45676;SDS011;31390;51.186;6.830;2023-01-19T13:52:56;51.20;;;31.67;;
45676;SDS011;31390;51.186;6.830;2023-01-19T13:55:40;49.70;;;30.50;;
45676;SDS011;31390;51.186;6.830;2023-01-19T13:58:22;43.67;;;29.73;;
45676;SDS011;31390;51.186;6.830;2023-01-19T14:00:57;45.20;;;30.17;;
45676;SDS011;31390;51.186;6.830;2023-01-19T14:03:24;47.93;;;30.60;;
45676;SDS011;31390;51.186;6.830;2023-01-19T14:05:54;34.53;;;25.97;;
45676;SDS011;31390;51.186;6.830;2023-01-19T14:08:21;37.57;;;25.83;;
45676;SDS011;31390;51.186;6.830;2023-01-19T14:13:30;42.53;;;27.47;;
45676;SDS011;31390;51.186;6.830;2023-01-19T14:16:03;41.07;;;27.90;;
45676;SDS011;31390;51.186;6.830;2023-01-19T14:18:30;41.33;;;27.50;;
45676;SDS011;31390;51.186;6.830;2023-01-19T14:21:04;37.30;;;25.17;;
45676;SDS011;31390;51.186;6.830;2023-01-19T14:23:52;36.53;;;24.73;;
45676;SDS011;31390;51.186;6.830;2023-01-19T14:29:14;34.63;;;24.87;;
45676;SDS011;31390;51.186;6.830;2023-01-19T14:31:45;43.60;;;28.17;;
45676;SDS011;31390;51.186;6.830;2023-01-19T14:36:56;42.13;;;27.83;;
45676;SDS011;31390;51.186;6.830;2023-01-19T14:39:23;34.53;;;24.83;;
45676;SDS011;31390;51.186;6.830;2023-01-19T14:41:51;46.37;;;28.70;;
45676;SDS011;31390;51.186;6.830;2023-01-19T14:44:28;44.33;;;29.47;;
45676;SDS011;31390;51.186;6.830;2023-01-19T14:49:48;47.83;;;30.90;;
45676;SDS011;31390;51.186;6.830;2023-01-19T14:52:26;40.63;;;29.00;;
45676;SDS011;31390;51.186;6.830;2023-01-19T14:54:53;41.13;;;29.47;;
45676;SDS011;31390;51.186;6.830;2023-01-19T14:57:20;35.50;;;26.80;;
45676;SDS011;31390;51.186;6.830;2023-01-19T14:59:47;40.40;;;29.13;;
45676;SDS011;31390;51.186;6.830;2023-01-19T15:02:15;41.03;;;28.80;;
45676;SDS011;31390;51.186;6.830;2023-01-19T15:04:44;42.67;;;31.07;;
45676;SDS011;31390;51.186;6.830;2023-01-19T15:07:17;40.30;;;28.27;;
45676;SDS011;31390;51.186;6.830;2023-01-19T15:09:44;47.53;;;29.10;;
45676;SDS011;31390;51.186;6.830;2023-01-19T15:12:11;33.70;;;26.27;;
45676;SDS011;31390;51.186;6.830;2023-01-19T15:14:44;45.87;;;30.83;;
45676;SDS011;31390;51.186;6.830;2023-01-19T15:17:16;41.70;;;29.67;;
45676;SDS011;31390;51.186;6.830;2023-01-19T15:19:44;42.53;;;29.13;;
45676;SDS011;31390;51.186;6.830;2023-01-19T15:22:11;35.67;;;25.80;;
45676;SDS011;31390;51.186;6.830;2023-01-19T15:24:38;46.07;;;29.63;;
45676;SDS011;31390;51.186;6.830;2023-01-19T15:27:09;41.30;;;29.80;;
45676;SDS011;31390;51.186;6.830;2023-01-19T15:29:37;55.23;;;34.20;;
45676;SDS011;31390;51.186;6.830;2023-01-19T15:32:08;47.37;;;31.87;;
45676;SDS011;31390;51.186;6.830;2023-01-19T15:34:36;45.83;;;32.07;;
45676;SDS011;31390;51.186;6.830;2023-01-19T15:37:02;46.50;;;29.57;;
45676;SDS011;31390;51.186;6.830;2023-01-19T15:39:29;59.90;;;34.57;;